createdAt,value
2022-10-30T00:00:14.373Z,16.86
2022-10-30T00:02:18.973Z,16.86
2022-10-30T00:03:18.552Z,16.88
2022-10-30T00:05:22.417Z,16.82
2022-10-30T00:06:22.435Z,16.82
2022-10-30T00:08:26.929Z,16.78
2022-10-30T00:09:26.465Z,16.78
2022-10-30T00:11:30.499Z,16.73
2022-10-30T00:12:30.511Z,16.76
2022-10-30T00:14:35.502Z,16.75
2022-10-30T00:15:34.528Z,16.61
2022-10-30T00:17:38.554Z,16.68
2022-10-30T00:18:38.572Z,16.70
2022-10-30T00:20:43.071Z,16.61
2022-10-30T00:21:42.646Z,16.70
2022-10-30T00:23:35.556Z,16.64
2022-10-30T00:24:35.571Z,16.70
2022-10-30T00:26:40.077Z,16.66
2022-10-30T00:27:39.603Z,16.67
2022-10-30T00:29:43.616Z,16.61
2022-10-30T00:30:43.636Z,16.58
2022-10-30T00:32:38.620Z,16.67
2022-10-30T00:33:37.105Z,16.67
2022-10-30T00:34:37.131Z,16.71
2022-10-30T00:35:37.220Z,16.63
2022-10-30T00:36:37.181Z,16.75
2022-10-30T00:37:37.379Z,16.64
2022-10-30T00:38:37.236Z,16.64
2022-10-30T00:39:37.254Z,16.78
2022-10-30T00:40:37.287Z,16.71
2022-10-30T00:41:37.302Z,16.73
2022-10-30T00:42:37.325Z,16.61
2022-10-30T00:43:37.353Z,16.71
2022-10-30T00:44:37.389Z,16.58
2022-10-30T00:45:37.396Z,16.67
2022-10-30T00:46:37.433Z,16.64
2022-10-30T00:47:37.456Z,16.75
2022-10-30T00:48:37.478Z,16.64
2022-10-30T00:49:37.504Z,16.67
2022-10-30T00:50:37.530Z,16.71
2022-10-30T00:51:37.555Z,16.68
2022-10-30T00:52:37.580Z,16.70
2022-10-30T00:53:37.608Z,16.61
2022-10-30T00:54:37.633Z,16.61
2022-10-30T00:55:37.660Z,16.66
2022-10-30T00:56:37.682Z,16.64
2022-10-30T00:57:37.711Z,16.61
2022-10-30T00:58:37.737Z,16.64
2022-10-30T00:59:37.761Z,16.75
2022-10-30T01:00:37.790Z,16.70
2022-10-30T01:01:38.041Z,16.60
2022-10-30T01:02:37.883Z,16.63
2022-10-30T01:03:37.867Z,16.64
2022-10-30T01:04:37.899Z,16.71
2022-10-30T01:05:37.916Z,16.60
2022-10-30T01:06:37.941Z,16.64
2022-10-30T01:07:37.969Z,16.68
2022-10-30T01:08:38.077Z,16.70
2022-10-30T01:09:38.020Z,16.61
2022-10-30T01:10:38.042Z,16.64
2022-10-30T01:11:38.067Z,16.49
2022-10-30T01:12:38.097Z,16.49
2022-10-30T01:13:38.120Z,16.49
2022-10-30T01:14:38.148Z,16.50
2022-10-30T01:15:38.171Z,16.53
2022-10-30T01:16:38.199Z,16.56
2022-10-30T01:17:38.223Z,16.49
2022-10-30T01:18:38.254Z,16.50
2022-10-30T01:19:38.276Z,16.57
2022-10-30T01:20:38.304Z,16.46
2022-10-30T01:21:38.330Z,16.48
2022-10-30T01:22:38.368Z,16.46
2022-10-30T01:23:38.378Z,16.41
2022-10-30T01:24:38.406Z,16.48
2022-10-30T01:25:38.439Z,16.42
2022-10-30T01:26:38.466Z,16.39
2022-10-30T01:27:38.484Z,16.39
2022-10-30T01:28:38.508Z,16.46
2022-10-30T01:29:38.534Z,16.42
2022-10-30T01:30:38.588Z,16.34
2022-10-30T01:31:38.592Z,16.33
2022-10-30T01:32:38.610Z,16.35
2022-10-30T01:33:38.641Z,16.20
2022-10-30T01:34:38.701Z,16.24
2022-10-30T01:35:38.692Z,16.28
2022-10-30T01:36:38.718Z,16.21
2022-10-30T01:37:38.751Z,16.21
2022-10-30T01:38:38.764Z,16.24
2022-10-30T01:39:38.791Z,16.23
2022-10-30T01:40:38.818Z,16.08
2022-10-30T01:41:38.844Z,16.24
2022-10-30T01:42:38.868Z,16.12
2022-10-30T01:43:38.891Z,16.11
2022-10-30T01:44:38.925Z,16.12
2022-10-30T01:45:38.943Z,16.15
2022-10-30T01:46:38.969Z,16.07
2022-10-30T01:47:38.995Z,16.08
2022-10-30T01:48:39.022Z,16.12
2022-10-30T01:49:39.045Z,16.07
2022-10-30T01:50:39.080Z,16.09
2022-10-30T01:51:39.098Z,16.05
2022-10-30T01:52:39.125Z,16.11
2022-10-30T01:53:39.149Z,16.07
2022-10-30T01:54:39.174Z,16.09
2022-10-30T01:55:39.209Z,16.07
2022-10-30T01:56:39.222Z,16.02
2022-10-30T01:57:39.251Z,16.04
2022-10-30T01:58:39.281Z,16.02
2022-10-30T01:59:39.303Z,15.97
2022-10-30T02:00:39.329Z,16.00
2022-10-30T02:01:39.405Z,16.11
2022-10-30T02:02:39.424Z,16.00
2022-10-30T02:03:39.403Z,15.96
2022-10-30T02:04:39.429Z,15.87
2022-10-30T02:05:39.451Z,15.82
2022-10-30T02:06:39.478Z,15.92
2022-10-30T02:07:39.505Z,15.89
2022-10-30T02:08:39.530Z,15.92
2022-10-30T02:09:39.559Z,15.87
2022-10-30T02:10:39.583Z,15.83
2022-10-30T02:11:39.609Z,15.86
2022-10-30T02:12:39.633Z,15.86
2022-10-30T02:13:39.659Z,15.82
2022-10-30T02:14:39.708Z,15.80
2022-10-30T02:15:39.710Z,15.78
2022-10-30T02:16:39.739Z,15.75
2022-10-30T02:17:39.761Z,15.75
2022-10-30T02:18:39.834Z,15.75
2022-10-30T02:19:39.812Z,15.75
2022-10-30T02:20:39.835Z,15.75
2022-10-30T02:21:39.860Z,15.76
2022-10-30T02:22:39.972Z,15.80
2022-10-30T02:23:39.909Z,15.67
2022-10-30T02:24:39.938Z,15.72
2022-10-30T02:25:39.965Z,15.67
2022-10-30T02:26:39.987Z,15.74
2022-10-30T02:27:40.011Z,15.74
2022-10-30T02:28:40.036Z,15.54
2022-10-30T02:29:40.063Z,15.59
2022-10-30T02:30:40.093Z,15.62
2022-10-30T02:31:40.117Z,15.60
2022-10-30T02:32:40.151Z,15.62
2022-10-30T02:33:40.166Z,15.59
2022-10-30T02:34:40.193Z,15.57
2022-10-30T02:35:40.214Z,15.60
2022-10-30T02:36:40.239Z,15.60
2022-10-30T02:37:40.271Z,15.59
2022-10-30T02:38:40.289Z,15.62
2022-10-30T02:39:40.313Z,15.57
2022-10-30T02:40:40.345Z,15.60
2022-10-30T02:41:40.374Z,15.62
2022-10-30T02:42:40.393Z,15.60
2022-10-30T02:43:40.418Z,15.56
2022-10-30T02:44:40.444Z,15.60
2022-10-30T02:45:40.467Z,15.62
2022-10-30T02:46:40.491Z,15.60
2022-10-30T02:47:40.517Z,15.59
2022-10-30T02:48:40.544Z,15.54
2022-10-30T02:49:47.739Z,15.59
2022-10-30T02:51:45.063Z,15.54
2022-10-30T02:52:44.604Z,15.56
2022-10-30T02:54:48.620Z,15.49
2022-10-30T02:55:48.645Z,15.57
2022-10-30T02:57:53.137Z,15.54
2022-10-30T02:58:52.675Z,15.53
2022-10-30T03:00:56.729Z,15.53
2022-10-30T03:01:56.878Z,15.46
2022-10-30T03:04:01.191Z,15.44
2022-10-30T03:05:00.734Z,15.39
2022-10-30T03:07:04.745Z,15.46
2022-10-30T03:08:04.766Z,15.39
2022-10-30T03:10:09.267Z,15.43
2022-10-30T03:11:08.794Z,15.43
2022-10-30T03:13:01.744Z,15.34
2022-10-30T03:14:01.757Z,15.39
2022-10-30T03:16:06.249Z,15.34
2022-10-30T03:17:05.781Z,15.34
2022-10-30T03:19:09.802Z,15.31
2022-10-30T03:20:09.813Z,15.36
2022-10-30T03:22:14.327Z,15.27
2022-10-30T03:23:13.845Z,15.23
2022-10-30T03:25:17.859Z,15.23
2022-10-30T03:26:17.878Z,15.21
2022-10-30T03:28:22.363Z,15.20
2022-10-30T03:29:21.904Z,15.16
2022-10-30T03:31:25.938Z,15.16
2022-10-30T03:34:30.441Z,15.19
2022-10-30T03:35:29.968Z,15.23
2022-10-30T03:37:33.988Z,15.21
2022-10-30T03:38:34.003Z,15.21
2022-10-30T03:40:38.497Z,15.29
2022-10-30T03:41:38.048Z,15.23
2022-10-30T03:43:30.981Z,15.25
2022-10-30T03:44:30.994Z,15.23
2022-10-30T03:46:35.493Z,15.19
2022-10-30T03:47:35.032Z,15.20
2022-10-30T03:49:39.044Z,15.19
2022-10-30T03:50:39.056Z,15.09
2022-10-30T03:52:43.553Z,15.20
2022-10-30T03:53:43.086Z,15.14
2022-10-30T03:55:47.105Z,15.19
2022-10-30T03:56:47.118Z,15.20
2022-10-30T03:58:51.627Z,15.17
2022-10-30T03:59:51.164Z,15.16
2022-10-30T04:01:55.323Z,15.17
2022-10-30T04:02:55.436Z,15.17
2022-10-30T04:04:59.670Z,15.11
2022-10-30T04:05:59.211Z,15.09
2022-10-30T04:08:03.226Z,15.13
2022-10-30T04:09:03.246Z,15.09
2022-10-30T04:11:07.780Z,15.11
2022-10-30T04:12:07.300Z,15.10
2022-10-30T04:14:11.293Z,15.10
2022-10-30T04:15:11.307Z,15.06
2022-10-30T04:17:15.806Z,15.11
2022-10-30T04:18:15.344Z,15.03
2022-10-30T04:20:19.363Z,15.09
2022-10-30T04:21:19.379Z,14.99
2022-10-30T04:22:19.416Z,15.02
2022-10-30T04:23:19.439Z,14.96
2022-10-30T04:24:19.451Z,14.94
2022-10-30T04:25:19.469Z,14.98
2022-10-30T04:26:19.503Z,14.98
2022-10-30T04:27:19.520Z,15.01
2022-10-30T04:28:19.545Z,14.92
2022-10-30T04:29:19.571Z,14.83
2022-10-30T04:30:19.593Z,14.73
2022-10-30T04:31:19.615Z,14.80
2022-10-30T04:32:19.644Z,14.80
2022-10-30T04:33:19.670Z,14.78
2022-10-30T04:34:19.689Z,14.69
2022-10-30T04:35:19.714Z,14.78
2022-10-30T04:36:19.742Z,14.69
2022-10-30T04:37:19.763Z,14.65
2022-10-30T04:38:19.794Z,14.70
2022-10-30T04:39:19.815Z,14.69
2022-10-30T04:40:19.833Z,14.62
2022-10-30T04:41:19.862Z,14.58
2022-10-30T04:42:19.888Z,14.51
2022-10-30T04:43:19.916Z,14.55
2022-10-30T04:44:19.931Z,14.54
2022-10-30T04:45:19.960Z,14.51
2022-10-30T04:46:19.984Z,14.43
2022-10-30T04:47:20.079Z,14.43
2022-10-30T04:48:20.050Z,14.37
2022-10-30T04:49:20.094Z,14.42
2022-10-30T04:50:20.093Z,14.43
2022-10-30T04:51:20.113Z,14.32
2022-10-30T04:52:20.142Z,14.28
2022-10-30T04:53:20.161Z,14.24
2022-10-30T04:54:20.187Z,14.21
2022-10-30T04:55:20.210Z,14.28
2022-10-30T04:56:20.233Z,14.28
2022-10-30T04:57:20.260Z,14.21
2022-10-30T04:58:20.283Z,14.18
2022-10-30T04:59:20.318Z,14.20
2022-10-30T05:00:20.329Z,14.15
2022-10-30T05:01:20.514Z,14.09
2022-10-30T05:02:20.540Z,14.00
2022-10-30T05:03:20.399Z,14.04
2022-10-30T05:04:20.436Z,14.02
2022-10-30T05:05:20.448Z,14.00
2022-10-30T05:06:20.475Z,13.97
2022-10-30T05:07:20.501Z,13.97
2022-10-30T05:08:20.521Z,13.91
2022-10-30T05:09:20.547Z,13.87
2022-10-30T05:10:20.574Z,13.84
2022-10-30T05:11:20.594Z,13.89
2022-10-30T05:12:20.620Z,13.87
2022-10-30T05:13:20.637Z,13.81
2022-10-30T05:14:20.665Z,13.82
2022-10-30T05:15:20.697Z,13.75
2022-10-30T05:16:20.714Z,13.70
2022-10-30T05:17:20.794Z,13.71
2022-10-30T05:18:20.761Z,13.69
2022-10-30T05:19:20.786Z,13.69
2022-10-30T05:20:20.809Z,13.67
2022-10-30T05:21:20.835Z,13.69
2022-10-30T05:22:20.856Z,13.62
2022-10-30T05:23:20.885Z,13.66
2022-10-30T05:24:20.905Z,13.66
2022-10-30T05:25:20.936Z,13.66
2022-10-30T05:26:20.953Z,13.60
2022-10-30T05:27:20.978Z,13.71
2022-10-30T05:28:21.000Z,13.57
2022-10-30T05:29:21.029Z,13.67
2022-10-30T05:30:21.056Z,13.59
2022-10-30T05:31:21.086Z,13.66
2022-10-30T05:32:21.102Z,13.66
2022-10-30T05:33:21.934Z,13.63
2022-10-30T05:34:21.147Z,13.54
2022-10-30T05:35:21.175Z,13.55
2022-10-30T05:36:21.196Z,13.54
2022-10-30T05:37:21.217Z,13.60
2022-10-30T05:38:21.240Z,13.54
2022-10-30T05:39:21.269Z,13.49
2022-10-30T05:40:21.290Z,13.48
2022-10-30T05:41:21.312Z,13.45
2022-10-30T05:42:21.344Z,13.32
2022-10-30T05:43:21.364Z,13.32
2022-10-30T05:44:34.695Z,13.30
2022-10-30T05:45:21.417Z,13.28
2022-10-30T05:46:21.439Z,13.25
2022-10-30T05:47:21.456Z,13.32
2022-10-30T05:48:21.483Z,13.19
2022-10-30T05:49:21.503Z,13.33
2022-10-30T05:50:21.523Z,13.32
2022-10-30T05:51:21.760Z,13.32
2022-10-30T05:52:21.576Z,13.20
2022-10-30T05:53:21.602Z,13.19
2022-10-30T05:54:21.622Z,13.28
2022-10-30T05:55:21.647Z,13.22
2022-10-30T05:56:21.670Z,13.12
2022-10-30T05:57:21.692Z,13.19
2022-10-30T05:58:21.716Z,13.19
2022-10-30T05:59:21.741Z,13.19
2022-10-30T06:00:21.763Z,13.11
2022-10-30T06:01:21.906Z,13.14
2022-10-30T06:02:21.885Z,13.15
2022-10-30T06:03:21.835Z,13.19
2022-10-30T06:04:21.858Z,13.17
2022-10-30T06:05:21.884Z,13.12
2022-10-30T06:06:21.913Z,13.04
2022-10-30T06:07:21.929Z,13.07
2022-10-30T06:08:21.954Z,13.12
2022-10-30T06:09:21.979Z,13.04
2022-10-30T06:10:22.000Z,13.07
2022-10-30T06:11:22.024Z,13.04
2022-10-30T06:12:22.050Z,13.04
2022-10-30T06:13:22.073Z,13.01
2022-10-30T06:14:22.095Z,13.05
2022-10-30T06:15:22.120Z,13.05
2022-10-30T06:16:22.213Z,12.95
2022-10-30T06:17:22.168Z,12.92
2022-10-30T06:18:22.191Z,12.96
2022-10-30T06:19:22.218Z,13.00
2022-10-30T06:20:22.240Z,12.96
2022-10-30T06:21:22.368Z,12.97
2022-10-30T06:22:22.289Z,12.97
2022-10-30T06:23:22.309Z,12.93
2022-10-30T06:24:22.334Z,12.95
2022-10-30T06:25:22.354Z,12.95
2022-10-30T06:26:22.382Z,12.93
2022-10-30T06:27:22.406Z,12.92
2022-10-30T06:28:22.425Z,12.93
2022-10-30T06:29:22.447Z,12.93
2022-10-30T06:30:22.477Z,12.87
2022-10-30T06:31:22.504Z,12.89
2022-10-30T06:32:22.524Z,12.90
2022-10-30T06:33:22.547Z,12.87
2022-10-30T06:34:22.582Z,12.90
2022-10-30T06:35:22.599Z,12.90
2022-10-30T06:36:22.611Z,12.89
2022-10-30T06:37:22.726Z,12.90
2022-10-30T06:38:22.663Z,12.86
2022-10-30T06:39:22.686Z,12.90
2022-10-30T06:40:22.709Z,12.93
2022-10-30T06:41:26.176Z,12.95
2022-10-30T06:42:22.756Z,12.97
2022-10-30T06:43:22.779Z,12.96
2022-10-30T06:44:22.805Z,12.90
2022-10-30T06:45:22.826Z,12.90
2022-10-30T06:46:25.656Z,12.95
2022-10-30T06:47:22.872Z,12.87
2022-10-30T06:48:22.899Z,12.93
2022-10-30T06:49:22.923Z,12.89
2022-10-30T06:50:22.945Z,12.89
2022-10-30T06:51:22.966Z,12.86
2022-10-30T06:52:23.038Z,12.92
2022-10-30T06:53:23.014Z,12.92
2022-10-30T06:54:23.039Z,12.97
2022-10-30T06:55:23.066Z,13.01
2022-10-30T06:56:23.087Z,12.96
2022-10-30T06:57:23.107Z,12.89
2022-10-30T06:58:23.130Z,13.05
2022-10-30T06:59:23.155Z,12.92
2022-10-30T07:00:23.178Z,13.07
2022-10-30T07:01:23.233Z,13.03
2022-10-30T07:02:23.294Z,13.01
2022-10-30T07:03:23.253Z,13.04
2022-10-30T07:04:23.272Z,13.05
2022-10-30T07:05:23.296Z,13.08
2022-10-30T07:06:23.322Z,13.01
2022-10-30T07:07:23.338Z,13.01
2022-10-30T07:08:23.371Z,13.00
2022-10-30T07:09:23.390Z,13.05
2022-10-30T07:10:23.420Z,13.03
2022-10-30T07:11:23.438Z,13.15
2022-10-30T07:12:23.470Z,13.25
2022-10-30T07:13:23.486Z,13.14
2022-10-30T07:14:23.508Z,13.28
2022-10-30T07:15:23.536Z,13.23
2022-10-30T07:16:23.558Z,13.28
2022-10-30T07:17:23.582Z,13.36
2022-10-30T07:18:23.610Z,13.38
2022-10-30T07:19:23.631Z,13.45
2022-10-30T07:20:23.656Z,13.45
2022-10-30T07:21:23.677Z,13.54
2022-10-30T07:22:23.702Z,13.57
2022-10-30T07:23:23.720Z,13.69
2022-10-30T07:24:23.754Z,13.60
2022-10-30T07:25:23.771Z,13.75
2022-10-30T07:26:23.796Z,13.77
2022-10-30T07:27:23.819Z,13.69
2022-10-30T07:28:23.844Z,13.81
2022-10-30T07:29:23.865Z,13.70
2022-10-30T07:30:23.899Z,13.71
2022-10-30T07:31:35.083Z,13.82
2022-10-30T07:32:23.941Z,13.85
2022-10-30T07:33:23.964Z,13.88
2022-10-30T07:34:23.986Z,13.97
2022-10-30T07:35:24.010Z,14.03
2022-10-30T07:36:24.034Z,14.10
2022-10-30T07:37:24.058Z,14.09
2022-10-30T07:38:24.086Z,14.12
2022-10-30T07:39:24.112Z,14.22
2022-10-30T07:40:24.131Z,14.20
2022-10-30T07:41:24.157Z,14.27
2022-10-30T07:42:24.178Z,14.33
2022-10-30T07:43:24.203Z,14.27
2022-10-30T07:44:24.230Z,14.46
2022-10-30T07:45:24.256Z,14.45
2022-10-30T07:46:24.274Z,14.42
2022-10-30T07:47:24.306Z,14.58
2022-10-30T07:48:24.326Z,14.60
2022-10-30T07:49:24.353Z,14.62
2022-10-30T07:50:24.377Z,14.73
2022-10-30T07:51:24.397Z,14.72
2022-10-30T07:52:24.426Z,14.72
2022-10-30T07:53:24.445Z,14.86
2022-10-30T07:54:24.471Z,14.78
2022-10-30T07:55:24.501Z,14.81
2022-10-30T07:56:24.518Z,14.84
2022-10-30T07:57:24.543Z,14.94
2022-10-30T07:58:24.575Z,14.86
2022-10-30T07:59:24.591Z,14.91
2022-10-30T08:00:24.617Z,15.09
2022-10-30T08:01:24.752Z,15.07
2022-10-30T08:02:24.829Z,15.13
2022-10-30T08:03:24.690Z,15.16
2022-10-30T08:04:24.715Z,15.20
2022-10-30T08:05:28.801Z,15.25
2022-10-30T08:06:27.095Z,15.19
2022-10-30T08:07:24.790Z,15.32
2022-10-30T08:08:24.813Z,15.39
2022-10-30T08:09:24.839Z,15.43
2022-10-30T08:10:24.869Z,15.50
2022-10-30T08:11:24.884Z,15.46
2022-10-30T08:12:24.911Z,15.38
2022-10-30T08:13:24.935Z,15.46
2022-10-30T08:14:24.961Z,15.44
2022-10-30T08:15:24.986Z,15.53
2022-10-30T08:16:25.030Z,15.59
2022-10-30T08:17:25.032Z,15.59
2022-10-30T08:18:25.061Z,15.65
2022-10-30T08:19:25.084Z,15.67
2022-10-30T08:20:25.109Z,15.83
2022-10-30T08:21:25.133Z,15.86
2022-10-30T08:22:25.160Z,15.89
2022-10-30T08:23:25.180Z,15.90
2022-10-30T08:24:25.205Z,15.96
2022-10-30T08:25:25.250Z,16.05
2022-10-30T08:26:25.256Z,16.05
2022-10-30T08:27:25.279Z,16.07
2022-10-30T08:28:29.862Z,16.12
2022-10-30T08:29:25.330Z,16.11
2022-10-30T08:30:25.362Z,16.14
2022-10-30T08:31:25.378Z,16.21
2022-10-30T08:32:25.403Z,16.21
2022-10-30T08:33:25.432Z,16.23
2022-10-30T08:34:25.454Z,16.17
2022-10-30T08:35:25.587Z,16.24
2022-10-30T08:36:25.509Z,16.23
2022-10-30T08:37:25.532Z,16.38
2022-10-30T08:38:25.555Z,16.33
2022-10-30T08:39:25.577Z,16.33
2022-10-30T08:40:25.716Z,16.42
2022-10-30T08:41:25.638Z,16.38
2022-10-30T08:42:25.655Z,16.53
2022-10-30T08:43:25.682Z,16.53
2022-10-30T08:44:25.706Z,16.49
2022-10-30T08:45:29.873Z,16.52
2022-10-30T08:46:25.756Z,16.64
2022-10-30T08:47:25.777Z,16.67
2022-10-30T08:48:25.809Z,16.71
2022-10-30T08:49:25.831Z,16.73
2022-10-30T08:50:25.857Z,16.81
2022-10-30T08:51:25.879Z,16.76
2022-10-30T08:52:25.912Z,16.86
2022-10-30T08:53:25.932Z,16.85
2022-10-30T08:54:25.955Z,17.00
2022-10-30T08:55:25.981Z,16.94
2022-10-30T08:56:26.009Z,17.00
2022-10-30T08:57:26.042Z,17.01
2022-10-30T08:58:26.059Z,17.12
2022-10-30T08:59:26.082Z,17.23
2022-10-30T09:00:26.120Z,17.26
2022-10-30T09:01:26.265Z,17.28
2022-10-30T09:02:26.287Z,17.30
2022-10-30T09:03:26.184Z,17.46
2022-10-30T09:04:26.215Z,17.44
2022-10-30T09:05:26.235Z,17.40
2022-10-30T09:06:26.261Z,17.43
2022-10-30T09:07:26.287Z,17.43
2022-10-30T09:08:26.310Z,17.55
2022-10-30T09:09:26.337Z,17.59
2022-10-30T09:10:26.364Z,17.71
2022-10-30T09:11:26.389Z,17.71
2022-10-30T09:12:26.416Z,17.77
2022-10-30T09:13:26.440Z,17.77
2022-10-30T09:14:26.463Z,17.79
2022-10-30T09:15:26.495Z,17.90
2022-10-30T09:16:26.521Z,17.84
2022-10-30T09:17:26.545Z,17.87
2022-10-30T09:18:26.572Z,17.96
2022-10-30T09:19:26.599Z,18.08
2022-10-30T09:20:26.628Z,17.97
2022-10-30T09:21:26.650Z,18.05
2022-10-30T09:22:26.673Z,18.14
2022-10-30T09:23:26.701Z,18.14
2022-10-30T09:24:26.732Z,18.32
2022-10-30T09:25:33.941Z,18.26
2022-10-30T09:27:31.249Z,18.37
2022-10-30T09:28:30.783Z,18.35
2022-10-30T09:30:34.806Z,18.42
2022-10-30T09:31:34.831Z,18.50
2022-10-30T09:33:27.820Z,18.57
2022-10-30T09:36:31.828Z,18.69
2022-10-30T09:37:31.829Z,18.69
2022-10-30T09:39:36.322Z,18.70
2022-10-30T09:40:35.861Z,18.67
2022-10-30T09:42:39.876Z,18.78
2022-10-30T09:43:39.896Z,18.75
2022-10-30T09:45:44.394Z,18.94
2022-10-30T09:46:43.931Z,18.85
2022-10-30T09:48:47.951Z,18.98
2022-10-30T09:49:47.967Z,18.98
2022-10-30T09:51:52.465Z,18.99
2022-10-30T09:52:52.017Z,19.07
2022-10-30T09:54:56.035Z,19.19
2022-10-30T09:55:56.044Z,19.26
2022-10-30T09:58:01.138Z,19.22
2022-10-30T09:59:00.084Z,19.23
2022-10-30T10:01:07.116Z,19.32
2022-10-30T10:02:04.367Z,19.48
2022-10-30T10:04:08.613Z,19.51
2022-10-30T10:05:08.153Z,19.62
2022-10-30T10:07:12.172Z,19.65
2022-10-30T10:08:12.190Z,19.68
2022-10-30T10:10:16.806Z,19.73
2022-10-30T10:11:16.232Z,19.68
2022-10-30T10:13:09.453Z,19.86
2022-10-30T10:14:09.194Z,20.01
2022-10-30T10:16:13.692Z,20.02
2022-10-30T10:17:13.232Z,20.10
2022-10-30T10:19:17.255Z,20.16
2022-10-30T10:20:17.276Z,20.16
2022-10-30T10:22:21.778Z,20.14
2022-10-30T10:23:21.314Z,20.11
2022-10-30T10:25:25.339Z,20.14
2022-10-30T10:26:25.359Z,20.16
2022-10-30T10:28:18.839Z,20.18
2022-10-30T10:29:18.516Z,20.16
2022-10-30T10:31:22.539Z,20.28
2022-10-30T10:32:22.564Z,20.28
2022-10-30T10:34:27.062Z,20.41
2022-10-30T10:35:26.609Z,20.41
2022-10-30T10:37:30.632Z,20.50
2022-10-30T10:38:30.650Z,20.51
2022-10-30T10:40:35.144Z,20.55
2022-10-30T10:41:34.688Z,20.59
2022-10-30T10:43:27.642Z,20.74
2022-10-30T10:44:27.660Z,20.74
2022-10-30T10:46:32.160Z,20.88
2022-10-30T10:47:31.709Z,20.85
2022-10-30T10:49:39.070Z,20.82
2022-10-30T10:50:35.750Z,20.88
2022-10-30T10:52:29.231Z,20.80
2022-10-30T10:53:28.918Z,20.85
2022-10-30T10:55:32.943Z,20.92
2022-10-30T10:56:32.956Z,20.89
2022-10-30T10:58:37.464Z,20.89
2022-10-30T10:59:37.016Z,20.89
2022-10-30T11:01:41.176Z,21.04
2022-10-30T11:02:41.151Z,21.10
2022-10-30T11:04:45.552Z,21.21
2022-10-30T11:05:45.102Z,21.10
2022-10-30T11:07:49.125Z,21.22
2022-10-30T11:08:49.146Z,21.27
2022-10-30T11:10:53.639Z,21.19
2022-10-30T11:11:53.191Z,21.19
2022-10-30T11:13:57.214Z,21.16
2022-10-30T11:14:57.230Z,21.14
2022-10-30T11:16:50.717Z,21.12
2022-10-30T11:17:50.499Z,21.14
2022-10-30T11:19:54.424Z,21.22
2022-10-30T11:20:54.440Z,21.25
2022-10-30T11:22:47.989Z,21.24
2022-10-30T11:23:47.412Z,21.34
2022-10-30T11:25:51.443Z,21.43
2022-10-30T11:26:51.464Z,21.50
2022-10-30T11:28:55.962Z,21.58
2022-10-30T11:29:55.509Z,21.65
2022-10-30T11:31:59.527Z,21.74
2022-10-30T11:32:59.742Z,21.79
2022-10-30T11:35:04.053Z,21.94
2022-10-30T11:36:03.589Z,21.99
2022-10-30T11:38:07.615Z,21.98
2022-10-30T11:39:07.637Z,22.10
2022-10-30T11:41:12.138Z,22.22
2022-10-30T11:42:11.682Z,22.20
2022-10-30T11:44:15.702Z,22.20
2022-10-30T11:45:15.719Z,22.24
2022-10-30T11:47:20.221Z,22.21
2022-10-30T11:48:20.098Z,22.27
2022-10-30T11:50:23.787Z,22.25
2022-10-30T11:51:23.872Z,22.25
2022-10-30T11:53:17.290Z,22.28
2022-10-30T11:54:16.772Z,22.36
2022-10-30T11:56:20.810Z,22.36
2022-10-30T11:57:20.828Z,22.33
2022-10-30T11:59:25.326Z,22.33
2022-10-30T12:00:24.961Z,22.27
2022-10-30T12:02:28.990Z,22.30
2022-10-30T12:03:28.919Z,22.33
2022-10-30T12:05:33.417Z,22.30
2022-10-30T12:06:32.960Z,22.33
2022-10-30T12:08:36.991Z,22.27
2022-10-30T12:09:37.013Z,22.40
2022-10-30T12:11:41.526Z,22.31
2022-10-30T12:12:41.061Z,22.33
2022-10-30T12:14:45.088Z,22.33
2022-10-30T12:15:45.101Z,22.28
2022-10-30T12:17:51.105Z,22.35
2022-10-30T12:18:49.146Z,22.33
2022-10-30T12:19:49.182Z,22.31
2022-10-30T12:20:49.208Z,22.27
2022-10-30T12:21:49.236Z,22.35
2022-10-30T12:22:49.261Z,22.35
2022-10-30T12:23:49.297Z,22.45
2022-10-30T12:24:49.321Z,22.46
2022-10-30T12:25:49.353Z,22.45
2022-10-30T12:26:49.384Z,22.47
2022-10-30T12:27:49.408Z,22.45
2022-10-30T12:28:49.440Z,22.61
2022-10-30T12:30:07.499Z,22.58
2022-10-30T12:30:49.494Z,22.67
2022-10-30T12:31:49.527Z,22.67
2022-10-30T12:32:49.572Z,22.67
2022-10-30T12:33:49.586Z,22.77
2022-10-30T12:34:49.615Z,22.73
2022-10-30T12:35:49.643Z,22.83
2022-10-30T12:36:49.680Z,22.77
2022-10-30T12:37:49.700Z,22.85
2022-10-30T12:38:49.751Z,22.67
2022-10-30T12:39:49.766Z,22.79
2022-10-30T12:40:49.795Z,22.86
2022-10-30T12:41:49.821Z,22.90
2022-10-30T12:42:49.850Z,22.88
2022-10-30T12:43:49.885Z,22.90
2022-10-30T12:44:49.912Z,22.83
2022-10-30T12:45:49.939Z,22.88
2022-10-30T12:46:49.975Z,22.80
2022-10-30T12:47:49.995Z,22.83
2022-10-30T12:48:50.028Z,22.88
2022-10-30T12:49:50.116Z,22.88
2022-10-30T12:50:50.082Z,22.86
2022-10-30T12:51:50.112Z,22.90
2022-10-30T12:52:50.139Z,22.85
2022-10-30T12:53:50.172Z,22.88
2022-10-30T12:54:50.226Z,22.91
2022-10-30T12:55:50.234Z,22.83
2022-10-30T12:56:50.263Z,22.88
2022-10-30T12:57:50.310Z,22.85
2022-10-30T12:58:50.333Z,22.82
2022-10-30T12:59:50.352Z,22.91
2022-10-30T13:00:50.392Z,22.95
2022-10-30T13:01:50.486Z,22.91
2022-10-30T13:02:50.438Z,22.97
2022-10-30T13:03:50.470Z,22.91
2022-10-30T13:04:50.494Z,22.90
2022-10-30T13:06:50.557Z,22.88
2022-10-30T13:07:50.586Z,22.86
2022-10-30T13:08:51.165Z,22.88
2022-10-30T13:09:50.644Z,22.88
2022-10-30T13:10:50.670Z,22.83
2022-10-30T13:11:50.709Z,22.88
2022-10-30T13:12:50.755Z,22.85
2022-10-30T13:13:50.810Z,22.80
2022-10-30T13:14:50.934Z,22.77
2022-10-30T13:15:50.820Z,22.86
2022-10-30T13:16:50.851Z,22.75
2022-10-30T13:17:50.884Z,22.88
2022-10-30T13:18:50.909Z,22.80
2022-10-30T13:19:50.942Z,22.86
2022-10-30T13:20:50.970Z,22.82
2022-10-30T13:21:51.004Z,22.94
2022-10-30T13:22:51.035Z,22.90
2022-10-30T13:23:51.059Z,22.95
2022-10-30T13:24:51.094Z,22.85
2022-10-30T13:25:51.118Z,22.88
2022-10-30T13:26:51.144Z,22.86
2022-10-30T13:27:51.176Z,22.83
2022-10-30T13:28:51.213Z,22.91
2022-10-30T13:29:51.236Z,22.94
2022-10-30T13:30:51.265Z,22.91
2022-10-30T13:31:51.294Z,22.98
2022-10-30T13:32:51.327Z,22.97
2022-10-30T13:33:51.350Z,22.97
2022-10-30T13:34:51.378Z,22.88
2022-10-30T13:35:51.417Z,22.90
2022-10-30T13:36:51.488Z,23.01
2022-10-30T13:37:51.476Z,22.98
2022-10-30T13:38:51.544Z,22.95
2022-10-30T13:39:51.530Z,22.90
2022-10-30T13:40:51.559Z,22.92
2022-10-30T13:41:51.592Z,22.97
2022-10-30T13:42:51.621Z,22.92
2022-10-30T13:43:51.653Z,22.92
2022-10-30T13:44:51.674Z,22.95
2022-10-30T13:45:51.710Z,23.00
2022-10-30T13:46:51.763Z,22.92
2022-10-30T13:47:51.767Z,22.91
2022-10-30T13:48:51.800Z,22.97
2022-10-30T13:49:51.824Z,22.90
2022-10-30T13:50:51.856Z,22.95
2022-10-30T13:51:51.884Z,22.91
2022-10-30T13:52:51.919Z,22.90
2022-10-30T13:53:51.943Z,22.98
2022-10-30T13:54:51.972Z,22.85
2022-10-30T13:55:52.006Z,22.90
2022-10-30T13:56:52.041Z,22.91
2022-10-30T13:57:52.060Z,22.91
2022-10-30T13:58:52.094Z,22.94
2022-10-30T13:59:52.124Z,22.83
2022-10-30T14:00:52.154Z,22.85
2022-10-30T14:01:53.078Z,22.90
2022-10-30T14:02:52.285Z,22.88
2022-10-30T14:03:52.244Z,22.85
2022-10-30T14:04:52.274Z,22.92
2022-10-30T14:05:52.300Z,22.85
2022-10-30T14:06:52.335Z,22.82
2022-10-30T14:07:52.362Z,22.80
2022-10-30T14:08:52.391Z,22.86
2022-10-30T14:09:52.421Z,22.80
2022-10-30T14:10:54.673Z,22.85
2022-10-30T14:11:52.482Z,22.88
2022-10-30T14:12:52.512Z,22.83
2022-10-30T14:13:52.542Z,22.80
2022-10-30T14:14:52.568Z,22.80
2022-10-30T14:15:52.601Z,22.75
2022-10-30T14:16:52.632Z,22.79
2022-10-30T14:17:52.654Z,22.72
2022-10-30T14:18:52.691Z,22.76
2022-10-30T14:19:52.720Z,22.75
2022-10-30T14:20:52.752Z,22.70
2022-10-30T14:21:52.798Z,22.73
2022-10-30T14:22:52.806Z,22.68
2022-10-30T14:23:52.840Z,22.72
2022-10-30T14:24:52.875Z,22.73
2022-10-30T14:25:52.898Z,22.68
2022-10-30T14:26:53.328Z,22.65
2022-10-30T14:27:52.992Z,22.67
2022-10-30T14:28:52.984Z,22.67
2022-10-30T14:29:53.013Z,22.65
2022-10-30T14:30:53.043Z,22.65
2022-10-30T14:31:53.074Z,22.64
2022-10-30T14:32:53.102Z,22.72
2022-10-30T14:33:53.134Z,22.54
2022-10-30T14:34:53.194Z,22.64
2022-10-30T14:35:54.936Z,22.65
2022-10-30T14:36:53.224Z,22.70
2022-10-30T14:37:53.255Z,22.67